sensor_id;sensor_type;location;lat;lon;timestamp;temperature;humidity
8269;DHT22;4174;48.304;16.364;2022-10-22T00:02:39;11.20;99.90
8269;DHT22;4174;48.304;16.364;2022-10-22T00:08:45;11.10;99.90
8269;DHT22;4174;48.304;16.364;2022-10-22T00:14:48;11.30;99.90
8269;DHT22;4174;48.304;16.364;2022-10-22T00:20:51;11.40;99.90
8269;DHT22;4174;48.304;16.364;2022-10-22T00:26:55;11.30;99.90
8269;DHT22;4174;48.304;16.364;2022-10-22T00:32:58;11.30;99.90
8269;DHT22;4174;48.304;16.364;2022-10-22T00:39:02;11.30;99.90
8269;DHT22;4174;48.304;16.364;2022-10-22T00:45:20;11.20;99.90
8269;DHT22;4174;48.304;16.364;2022-10-22T00:51:23;11.10;99.90
8269;DHT22;4174;48.304;16.364;2022-10-22T00:57:25;11.20;99.90
8269;DHT22;4174;48.304;16.364;2022-10-22T01:03:29;10.80;99.90
8269;DHT22;4174;48.304;16.364;2022-10-22T01:09:38;10.80;99.90
8269;DHT22;4174;48.304;16.364;2022-10-22T01:15:48;10.80;99.90
8269;DHT22;4174;48.304;16.364;2022-10-22T01:21:53;10.70;99.90
8269;DHT22;4174;48.304;16.364;2022-10-22T01:27:57;10.70;99.90
8269;DHT22;4174;48.304;16.364;2022-10-22T01:33:57;10.30;99.90
8269;DHT22;4174;48.304;16.364;2022-10-22T01:39:59;10.30;99.90
8269;DHT22;4174;48.304;16.364;2022-10-22T01:46:04;10.50;99.90
8269;DHT22;4174;48.304;16.364;2022-10-22T01:52:27;10.30;99.90
8269;DHT22;4174;48.304;16.364;2022-10-22T01:58:36;10.40;99.90
8269;DHT22;4174;48.304;16.364;2022-10-22T02:04:59;10.40;99.90
8269;DHT22;4174;48.304;16.364;2022-10-22T02:11:01;10.10;99.90
8269;DHT22;4174;48.304;16.364;2022-10-22T02:17:04;10.00;99.90
8269;DHT22;4174;48.304;16.364;2022-10-22T02:23:08;10.00;99.90
8269;DHT22;4174;48.304;16.364;2022-10-22T02:29:14;9.90;99.90
8269;DHT22;4174;48.304;16.364;2022-10-22T02:35:18;10.00;99.90
8269;DHT22;4174;48.304;16.364;2022-10-22T02:41:20;10.00;99.90
8269;DHT22;4174;48.304;16.364;2022-10-22T02:47:24;9.90;99.90
8269;DHT22;4174;48.304;16.364;2022-10-22T02:53:27;10.10;99.90
8269;DHT22;4174;48.304;16.364;2022-10-22T02:59:31;10.10;99.90
8269;DHT22;4174;48.304;16.364;2022-10-22T03:05:35;10.00;99.90
8269;DHT22;4174;48.304;16.364;2022-10-22T03:11:39;10.20;99.90
8269;DHT22;4174;48.304;16.364;2022-10-22T03:17:43;10.10;99.90
8269;DHT22;4174;48.304;16.364;2022-10-22T03:23:46;10.20;99.90
8269;DHT22;4174;48.304;16.364;2022-10-22T03:29:50;10.40;99.90
8269;DHT22;4174;48.304;16.364;2022-10-22T03:35:53;10.30;99.90
8269;DHT22;4174;48.304;16.364;2022-10-22T03:41:56;10.30;99.90
8269;DHT22;4174;48.304;16.364;2022-10-22T03:47:59;9.90;99.90
8269;DHT22;4174;48.304;16.364;2022-10-22T03:54:05;10.20;99.90
8269;DHT22;4174;48.304;16.364;2022-10-22T04:00:11;9.90;99.90
8269;DHT22;4174;48.304;16.364;2022-10-22T04:06:15;9.90;99.90
8269;DHT22;4174;48.304;16.364;2022-10-22T04:12:19;9.80;99.90
8269;DHT22;4174;48.304;16.364;2022-10-22T04:18:23;9.70;99.90
8269;DHT22;4174;48.304;16.364;2022-10-22T04:24:28;9.70;99.90
8269;DHT22;4174;48.304;16.364;2022-10-22T04:30:30;9.90;99.90
8269;DHT22;4174;48.304;16.364;2022-10-22T04:36:33;9.60;99.90
8269;DHT22;4174;48.304;16.364;2022-10-22T04:42:37;9.70;99.90
8269;DHT22;4174;48.304;16.364;2022-10-22T04:48:41;9.70;99.90
8269;DHT22;4174;48.304;16.364;2022-10-22T04:54:45;10.00;99.90
8269;DHT22;4174;48.304;16.364;2022-10-22T05:00:49;10.30;99.90
8269;DHT22;4174;48.304;16.364;2022-10-22T05:06:53;10.10;99.90
8269;DHT22;4174;48.304;16.364;2022-10-22T05:12:57;10.10;99.90
8269;DHT22;4174;48.304;16.364;2022-10-22T05:19:02;10.30;99.90
8269;DHT22;4174;48.304;16.364;2022-10-22T05:25:07;10.40;99.90
8269;DHT22;4174;48.304;16.364;2022-10-22T05:31:11;10.20;99.90
8269;DHT22;4174;48.304;16.364;2022-10-22T05:37:15;10.40;99.90
8269;DHT22;4174;48.304;16.364;2022-10-22T05:43:19;10.40;99.90
8269;DHT22;4174;48.304;16.364;2022-10-22T05:49:23;10.70;99.90
8269;DHT22;4174;48.304;16.364;2022-10-22T05:55:28;11.10;99.90
8269;DHT22;4174;48.304;16.364;2022-10-22T06:01:32;11.00;99.90
8269;DHT22;4174;48.304;16.364;2022-10-22T06:07:34;10.90;99.90
8269;DHT22;4174;48.304;16.364;2022-10-22T06:13:37;11.10;99.90
8269;DHT22;4174;48.304;16.364;2022-10-22T06:19:41;11.40;99.90
8269;DHT22;4174;48.304;16.364;2022-10-22T06:25:54;11.70;99.90
8269;DHT22;4174;48.304;16.364;2022-10-22T06:31:49;11.90;99.90
8269;DHT22;4174;48.304;16.364;2022-10-22T06:37:53;11.90;99.90
8269;DHT22;4174;48.304;16.364;2022-10-22T06:43:57;12.50;99.90
8269;DHT22;4174;48.304;16.364;2022-10-22T06:50:01;12.90;99.90
8269;DHT22;4174;48.304;16.364;2022-10-22T06:56:07;14.00;99.90
8269;DHT22;4174;48.304;16.364;2022-10-22T07:02:11;14.00;99.90
8269;DHT22;4174;48.304;16.364;2022-10-22T07:08:15;13.90;99.90
8269;DHT22;4174;48.304;16.364;2022-10-22T07:14:19;13.70;99.90
8269;DHT22;4174;48.304;16.364;2022-10-22T07:20:22;13.90;99.90
8269;DHT22;4174;48.304;16.364;2022-10-22T07:26:27;14.10;99.90
8269;DHT22;4174;48.304;16.364;2022-10-22T07:32:29;14.10;99.90
8269;DHT22;4174;48.304;16.364;2022-10-22T07:38:32;14.00;99.90
8269;DHT22;4174;48.304;16.364;2022-10-22T07:44:36;13.90;99.90
8269;DHT22;4174;48.304;16.364;2022-10-22T07:50:40;14.00;99.90
8269;DHT22;4174;48.304;16.364;2022-10-22T07:56:46;14.20;99.90
8269;DHT22;4174;48.304;16.364;2022-10-22T08:02:50;14.10;99.90
8269;DHT22;4174;48.304;16.364;2022-10-22T08:08:53;14.30;99.90
8269;DHT22;4174;48.304;16.364;2022-10-22T08:14:57;14.00;99.90
8269;DHT22;4174;48.304;16.364;2022-10-22T08:21:01;14.10;99.90
8269;DHT22;4174;48.304;16.364;2022-10-22T08:27:05;14.20;99.90
8269;DHT22;4174;48.304;16.364;2022-10-22T08:33:10;13.70;99.90
8269;DHT22;4174;48.304;16.364;2022-10-22T08:39:15;13.40;99.90
8269;DHT22;4174;48.304;16.364;2022-10-22T08:45:23;13.60;99.90
8269;DHT22;4174;48.304;16.364;2022-10-22T08:51:29;13.60;99.90
8269;DHT22;4174;48.304;16.364;2022-10-22T08:57:43;13.40;99.90
8269;DHT22;4174;48.304;16.364;2022-10-22T09:04:21;13.30;99.90
8269;DHT22;4174;48.304;16.364;2022-10-22T09:10:26;13.30;99.90
8269;DHT22;4174;48.304;16.364;2022-10-22T09:16:33;13.10;99.90
8269;DHT22;4174;48.304;16.364;2022-10-22T09:22:48;13.30;99.90
8269;DHT22;4174;48.304;16.364;2022-10-22T09:28:50;13.30;99.90
8269;DHT22;4174;48.304;16.364;2022-10-22T09:34:55;13.40;99.90
8269;DHT22;4174;48.304;16.364;2022-10-22T09:40:57;13.30;99.90
8269;DHT22;4174;48.304;16.364;2022-10-22T09:47:02;13.40;99.90
8269;DHT22;4174;48.304;16.364;2022-10-22T09:53:12;13.60;99.90
8269;DHT22;4174;48.304;16.364;2022-10-22T09:59:14;13.80;99.90
8269;DHT22;4174;48.304;16.364;2022-10-22T10:05:19;14.00;99.90
8269;DHT22;4174;48.304;16.364;2022-10-22T10:11:26;14.20;99.90
8269;DHT22;4174;48.304;16.364;2022-10-22T10:17:32;14.20;99.90
8269;DHT22;4174;48.304;16.364;2022-10-22T10:23:45;14.10;99.90
8269;DHT22;4174;48.304;16.364;2022-10-22T10:30:02;13.90;99.90
8269;DHT22;4174;48.304;16.364;2022-10-22T10:36:11;13.30;99.90
8269;DHT22;4174;48.304;16.364;2022-10-22T10:42:21;13.10;99.90
8269;DHT22;4174;48.304;16.364;2022-10-22T10:48:35;13.00;99.90
8269;DHT22;4174;48.304;16.364;2022-10-22T10:55:58;13.10;99.90
8269;DHT22;4174;48.304;16.364;2022-10-22T11:02:01;12.80;99.90
8269;DHT22;4174;48.304;16.364;2022-10-22T11:08:18;13.00;99.90
8269;DHT22;4174;48.304;16.364;2022-10-22T11:14:36;13.10;99.90
8269;DHT22;4174;48.304;16.364;2022-10-22T11:20:46;13.50;99.90
8269;DHT22;4174;48.304;16.364;2022-10-22T11:26:55;14.10;99.90
8269;DHT22;4174;48.304;16.364;2022-10-22T11:33:00;14.10;99.90
8269;DHT22;4174;48.304;16.364;2022-10-22T11:39:02;14.50;99.90
8269;DHT22;4174;48.304;16.364;2022-10-22T11:45:25;14.60;99.90
8269;DHT22;4174;48.304;16.364;2022-10-22T11:51:34;14.20;99.90
8269;DHT22;4174;48.304;16.364;2022-10-22T11:57:37;14.30;99.90
8269;DHT22;4174;48.304;16.364;2022-10-22T12:03:43;13.70;99.90
8269;DHT22;4174;48.304;16.364;2022-10-22T12:09:45;13.60;99.90
8269;DHT22;4174;48.304;16.364;2022-10-22T12:15:50;13.40;99.90
8269;DHT22;4174;48.304;16.364;2022-10-22T12:21:54;13.50;99.90
8269;DHT22;4174;48.304;16.364;2022-10-22T12:27:57;13.90;99.90
8269;DHT22;4174;48.304;16.364;2022-10-22T12:33:59;14.10;99.90
8269;DHT22;4174;48.304;16.364;2022-10-22T12:46:17;14.60;99.90
8269;DHT22;4174;48.304;16.364;2022-10-22T12:52:20;14.70;99.90
8269;DHT22;4174;48.304;16.364;2022-10-22T12:58:25;14.90;99.90
8269;DHT22;4174;48.304;16.364;2022-10-22T13:04:32;15.00;99.90
8269;DHT22;4174;48.304;16.364;2022-10-22T13:10:35;15.00;99.90
8269;DHT22;4174;48.304;16.364;2022-10-22T13:16:37;15.10;99.90
8269;DHT22;4174;48.304;16.364;2022-10-22T13:22:40;15.00;99.90
8269;DHT22;4174;48.304;16.364;2022-10-22T13:28:48;15.00;99.90
8269;DHT22;4174;48.304;16.364;2022-10-22T13:34:52;15.00;99.90
8269;DHT22;4174;48.304;16.364;2022-10-22T13:40:56;15.00;99.90
8269;DHT22;4174;48.304;16.364;2022-10-22T13:46:59;14.90;99.90
8269;DHT22;4174;48.304;16.364;2022-10-22T13:53:02;15.00;99.90
8269;DHT22;4174;48.304;16.364;2022-10-22T13:59:07;14.90;99.90
8269;DHT22;4174;48.304;16.364;2022-10-22T14:05:09;14.90;99.90
8269;DHT22;4174;48.304;16.364;2022-10-22T14:11:12;14.90;99.90
8269;DHT22;4174;48.304;16.364;2022-10-22T14:17:15;14.90;99.90
8269;DHT22;4174;48.304;16.364;2022-10-22T14:23:19;14.80;99.90
8269;DHT22;4174;48.304;16.364;2022-10-22T14:29:22;14.50;99.90
8269;DHT22;4174;48.304;16.364;2022-10-22T14:35:26;14.50;99.90
8269;DHT22;4174;48.304;16.364;2022-10-22T14:41:29;14.50;99.90
8269;DHT22;4174;48.304;16.364;2022-10-22T14:47:33;14.60;99.90
8269;DHT22;4174;48.304;16.364;2022-10-22T14:53:37;14.70;99.90
8269;DHT22;4174;48.304;16.364;2022-10-22T14:59:41;14.70;99.90
8269;DHT22;4174;48.304;16.364;2022-10-22T15:05:49;14.70;99.90
8269;DHT22;4174;48.304;16.364;2022-10-22T15:11:49;14.70;99.90
8269;DHT22;4174;48.304;16.364;2022-10-22T15:17:52;14.80;99.90
8269;DHT22;4174;48.304;16.364;2022-10-22T15:23:57;14.60;99.90
8269;DHT22;4174;48.304;16.364;2022-10-22T15:30:01;14.60;99.90
8269;DHT22;4174;48.304;16.364;2022-10-22T15:36:10;14.40;99.90
8269;DHT22;4174;48.304;16.364;2022-10-22T15:42:12;14.30;99.90
8269;DHT22;4174;48.304;16.364;2022-10-22T15:48:16;14.40;99.90
8269;DHT22;4174;48.304;16.364;2022-10-22T15:54:23;14.40;99.90
8269;DHT22;4174;48.304;16.364;2022-10-22T16:00:24;14.20;99.90
8269;DHT22;4174;48.304;16.364;2022-10-22T16:06:29;14.20;99.90
8269;DHT22;4174;48.304;16.364;2022-10-22T16:12:32;14.20;99.90
8269;DHT22;4174;48.304;16.364;2022-10-22T16:18:34;14.20;99.90
8269;DHT22;4174;48.304;16.364;2022-10-22T16:24:38;14.10;99.90
8269;DHT22;4174;48.304;16.364;2022-10-22T16:30:43;14.00;99.90
8269;DHT22;4174;48.304;16.364;2022-10-22T16:36:46;14.00;99.90
8269;DHT22;4174;48.304;16.364;2022-10-22T16:42:49;14.20;99.90
8269;DHT22;4174;48.304;16.364;2022-10-22T16:48:54;14.20;99.90
8269;DHT22;4174;48.304;16.364;2022-10-22T16:54:58;14.40;99.90
8269;DHT22;4174;48.304;16.364;2022-10-22T17:01:04;14.40;99.90
8269;DHT22;4174;48.304;16.364;2022-10-22T17:07:07;14.40;99.90
8269;DHT22;4174;48.304;16.364;2022-10-22T17:13:11;14.30;99.90
8269;DHT22;4174;48.304;16.364;2022-10-22T17:19:15;14.20;99.90
8269;DHT22;4174;48.304;16.364;2022-10-22T17:25:20;14.20;99.90
8269;DHT22;4174;48.304;16.364;2022-10-22T17:31:23;14.20;99.90
8269;DHT22;4174;48.304;16.364;2022-10-22T17:37:25;14.10;99.90
8269;DHT22;4174;48.304;16.364;2022-10-22T17:43:29;14.10;99.90
8269;DHT22;4174;48.304;16.364;2022-10-22T17:49:33;14.10;99.90
8269;DHT22;4174;48.304;16.364;2022-10-22T17:55:37;14.10;99.90
8269;DHT22;4174;48.304;16.364;2022-10-22T18:01:41;14.20;99.90
8269;DHT22;4174;48.304;16.364;2022-10-22T18:07:47;14.10;99.90
8269;DHT22;4174;48.304;16.364;2022-10-22T18:13:51;14.20;99.90
8269;DHT22;4174;48.304;16.364;2022-10-22T18:19:53;14.20;99.90
8269;DHT22;4174;48.304;16.364;2022-10-22T18:25:56;14.20;99.90
8269;DHT22;4174;48.304;16.364;2022-10-22T18:32:00;14.30;99.90
8269;DHT22;4174;48.304;16.364;2022-10-22T18:38:04;14.20;99.90
8269;DHT22;4174;48.304;16.364;2022-10-22T18:44:10;14.20;99.90
8269;DHT22;4174;48.304;16.364;2022-10-22T18:50:10;14.30;99.90
8269;DHT22;4174;48.304;16.364;2022-10-22T18:56:15;14.20;99.90
8269;DHT22;4174;48.304;16.364;2022-10-22T19:02:19;14.20;99.90
8269;DHT22;4174;48.304;16.364;2022-10-22T19:08:23;14.20;99.90
8269;DHT22;4174;48.304;16.364;2022-10-22T19:14:28;14.20;99.90
8269;DHT22;4174;48.304;16.364;2022-10-22T19:20:32;14.20;99.90
8269;DHT22;4174;48.304;16.364;2022-10-22T19:26:34;14.30;99.90
8269;DHT22;4174;48.304;16.364;2022-10-22T19:32:39;14.30;99.90
8269;DHT22;4174;48.304;16.364;2022-10-22T19:38:45;14.10;99.90
8269;DHT22;4174;48.304;16.364;2022-10-22T19:44:47;14.10;99.90
8269;DHT22;4174;48.304;16.364;2022-10-22T19:50:56;14.20;99.90
8269;DHT22;4174;48.304;16.364;2022-10-22T19:56:53;14.40;99.90
8269;DHT22;4174;48.304;16.364;2022-10-22T20:02:59;14.40;99.90
8269;DHT22;4174;48.304;16.364;2022-10-22T20:09:03;14.40;99.90
8269;DHT22;4174;48.304;16.364;2022-10-22T20:15:08;14.40;99.90
8269;DHT22;4174;48.304;16.364;2022-10-22T20:21:11;14.40;99.90
8269;DHT22;4174;48.304;16.364;2022-10-22T20:27:15;14.40;99.90
8269;DHT22;4174;48.304;16.364;2022-10-22T20:33:20;14.20;99.90
8269;DHT22;4174;48.304;16.364;2022-10-22T20:39:23;14.30;99.90
8269;DHT22;4174;48.304;16.364;2022-10-22T20:45:28;14.40;99.90
8269;DHT22;4174;48.304;16.364;2022-10-22T20:51:33;14.40;99.90
8269;DHT22;4174;48.304;16.364;2022-10-22T20:57:36;14.30;99.90
8269;DHT22;4174;48.304;16.364;2022-10-22T21:03:40;14.40;99.90
8269;DHT22;4174;48.304;16.364;2022-10-22T21:09:46;14.40;99.90
8269;DHT22;4174;48.304;16.364;2022-10-22T21:15:49;14.40;99.90
8269;DHT22;4174;48.304;16.364;2022-10-22T21:21:53;14.40;99.90
8269;DHT22;4174;48.304;16.364;2022-10-22T21:27:56;14.30;99.90
8269;DHT22;4174;48.304;16.364;2022-10-22T21:34:00;14.30;99.90
8269;DHT22;4174;48.304;16.364;2022-10-22T21:40:06;14.30;99.90
8269;DHT22;4174;48.304;16.364;2022-10-22T21:46:14;14.30;99.90
8269;DHT22;4174;48.304;16.364;2022-10-22T21:52:16;14.20;99.90
8269;DHT22;4174;48.304;16.364;2022-10-22T21:58:20;14.10;99.90
8269;DHT22;4174;48.304;16.364;2022-10-22T22:04:24;14.20;99.90
8269;DHT22;4174;48.304;16.364;2022-10-22T22:10:28;14.10;99.90
8269;DHT22;4174;48.304;16.364;2022-10-22T22:16:31;14.10;99.90
8269;DHT22;4174;48.304;16.364;2022-10-22T22:22:33;14.00;99.90
8269;DHT22;4174;48.304;16.364;2022-10-22T22:28:36;13.90;99.90
8269;DHT22;4174;48.304;16.364;2022-10-22T22:34:39;14.00;99.90
8269;DHT22;4174;48.304;16.364;2022-10-22T22:40:45;13.90;99.90
8269;DHT22;4174;48.304;16.364;2022-10-22T22:46:49;13.80;99.90
8269;DHT22;4174;48.304;16.364;2022-10-22T22:52:53;13.90;99.90
8269;DHT22;4174;48.304;16.364;2022-10-22T22:58:59;13.90;99.90
8269;DHT22;4174;48.304;16.364;2022-10-22T23:05:03;13.90;99.90
8269;DHT22;4174;48.304;16.364;2022-10-22T23:11:09;14.10;99.90
8269;DHT22;4174;48.304;16.364;2022-10-22T23:17:12;14.20;99.90
8269;DHT22;4174;48.304;16.364;2022-10-22T23:23:16;14.20;99.90
8269;DHT22;4174;48.304;16.364;2022-10-22T23:29:24;14.30;99.90
8269;DHT22;4174;48.304;16.364;2022-10-22T23:35:25;14.20;99.90
8269;DHT22;4174;48.304;16.364;2022-10-22T23:41:29;14.30;99.90
8269;DHT22;4174;48.304;16.364;2022-10-22T23:47:33;14.20;99.90
8269;DHT22;4174;48.304;16.364;2022-10-22T23:53:36;14.20;99.90
8269;DHT22;4174;48.304;16.364;2022-10-22T23:59:39;14.20;99.90
